Time;durP1;ratioP1;P1;durP2;ratioP2;P2;SDS_P1;SDS_P2;PMS_P1;PMS_P2;Temp;Humidity;BMP_temperature;BMP_pressure;BME280_temperature;BME280_humidity;BME280_pressure;Samples;Min_cycle;Max_cycle;Signal;HPM_P1;HPM_P2
2023/12/11 00:00:31;;;;;;;28.57;6.77;;;11.40;99.90;;;;;;5011827;28;20188;-85
2023/12/11 00:02:59;;;;;;;23.57;5.77;;;11.50;99.90;;;;;;5011358;28;20224;-83
2023/12/11 00:05:24;;;;;;;27.60;5.97;;;11.40;99.90;;;;;;5011718;28;20217;-84
2023/12/11 00:07:50;;;;;;;31.03;6.90;;;11.40;99.90;;;;;;5012085;28;20242;-84
2023/12/11 00:10:16;;;;;;;30.93;6.83;;;11.40;99.90;;;;;;5011566;28;20638;-84
2023/12/11 00:12:42;;;;;;;24.27;6.37;;;11.30;99.90;;;;;;5011521;28;20171;-84
2023/12/11 00:15:10;;;;;;;25.87;5.50;;;11.20;99.90;;;;;;5011796;28;20224;-84
2023/12/11 00:17:36;;;;;;;27.67;7.03;;;11.30;99.90;;;;;;5011222;28;20203;-84
2023/12/11 00:20:02;;;;;;;29.77;7.73;;;11.30;99.90;;;;;;5012318;28;20670;-84
2023/12/11 00:22:27;;;;;;;28.77;6.60;;;11.30;99.90;;;;;;5010832;28;20279;-84
2023/12/11 00:24:53;;;;;;;25.77;6.40;;;11.40;99.90;;;;;;5012052;28;20187;-84
2023/12/11 00:27:19;;;;;;;25.73;6.17;;;11.30;99.90;;;;;;5012687;28;20658;-84
2023/12/11 00:29:44;;;;;;;28.30;6.70;;;11.40;99.90;;;;;;5011865;28;20201;-84
2023/12/11 00:32:10;;;;;;;23.57;6.00;;;11.30;99.90;;;;;;5011264;28;20174;-85
2023/12/11 00:34:36;;;;;;;21.43;5.77;;;11.20;99.90;;;;;;5010162;28;20631;-84
2023/12/11 00:37:01;;;;;;;25.60;6.70;;;11.20;99.90;;;;;;5009835;28;20648;-85
2023/12/11 00:39:27;;;;;;;29.07;7.20;;;11.20;99.90;;;;;;5010626;28;20171;-84
2023/12/11 00:41:53;;;;;;;27.17;6.37;;;11.30;99.90;;;;;;5010669;28;20179;-83
2023/12/11 00:44:19;;;;;;;21.93;5.23;;;11.30;99.90;;;;;;5015221;28;20177;-83
2023/12/11 00:46:45;;;;;;;25.57;5.73;;;11.20;99.90;;;;;;5014930;28;20280;-83
2023/12/11 00:49:11;;;;;;;25.47;6.20;;;11.30;99.90;;;;;;5015278;28;20182;-84
2023/12/11 00:51:36;;;;;;;22.90;6.07;;;11.30;99.90;;;;;;5013270;28;20175;-84
2023/12/11 00:54:02;;;;;;;25.43;5.20;;;11.30;99.90;;;;;;5014814;28;20182;-83
2023/12/11 00:56:28;;;;;;;23.37;5.70;;;11.40;99.90;;;;;;5015119;28;20179;-84
2023/12/11 00:58:54;;;;;;;23.70;6.23;;;11.30;99.90;;;;;;5014127;28;20520;-84
2023/12/11 01:01:19;;;;;;;28.00;5.93;;;11.30;99.90;;;;;;5014198;28;20560;-83
2023/12/11 01:03:45;;;;;;;21.83;6.00;;;11.40;99.90;;;;;;5014754;28;20229;-84
2023/12/11 01:06:11;;;;;;;28.83;6.27;;;11.40;99.90;;;;;;5012480;28;20595;-84
2023/12/11 01:08:39;;;;;;;29.63;6.23;;;11.50;99.90;;;;;;5013619;28;20304;-84
2023/12/11 01:11:06;;;;;;;22.53;5.60;;;11.40;99.90;;;;;;5014758;28;20179;-85
2023/12/11 01:13:32;;;;;;;30.10;7.03;;;11.40;99.90;;;;;;5014016;28;20635;-85
2023/12/11 01:15:58;;;;;;;23.07;5.37;;;11.30;99.90;;;;;;5014166;28;20623;-82
2023/12/11 01:18:24;;;;;;;24.00;5.57;;;11.30;99.90;;;;;;5014071;28;20324;-84
2023/12/11 01:20:53;;;;;;;21.97;5.63;;;11.30;99.90;;;;;;5014338;28;20181;-83
2023/12/11 01:23:19;;;;;;;22.20;6.00;;;11.30;99.90;;;;;;5012074;28;20177;-84
2023/12/11 01:25:45;;;;;;;17.70;5.13;;;11.30;99.90;;;;;;5014526;28;20178;-83
2023/12/11 01:28:11;;;;;;;30.67;5.57;;;11.30;99.90;;;;;;5014096;28;20300;-83
2023/12/11 01:30:37;;;;;;;25.67;6.17;;;11.30;99.90;;;;;;5014365;28;20536;-84
2023/12/11 01:33:03;;;;;;;18.67;5.77;;;11.30;99.90;;;;;;5013682;28;20653;-84
2023/12/11 01:35:29;;;;;;;25.07;6.00;;;11.40;99.90;;;;;;5013849;28;20657;-83
2023/12/11 01:37:54;;;;;;;25.70;5.83;;;11.40;99.90;;;;;;5013821;28;20178;-83
2023/12/11 01:40:20;;;;;;;21.27;5.43;;;11.40;99.90;;;;;;5013478;28;20173;-83
2023/12/11 01:42:46;;;;;;;19.50;5.00;;;11.40;99.90;;;;;;5013037;28;20190;-83
2023/12/11 01:45:12;;;;;;;24.37;5.70;;;11.50;99.90;;;;;;5014461;28;20178;-83
2023/12/11 01:47:38;;;;;;;23.57;5.63;;;11.50;99.90;;;;;;5012729;28;20210;-83
2023/12/11 01:50:07;;;;;;;22.33;5.40;;;11.50;99.90;;;;;;5032354;28;20636;-83
2023/12/11 01:52:32;;;;;;;23.07;6.20;;;11.50;99.90;;;;;;5033699;28;20268;-83
2023/12/11 01:54:59;;;;;;;25.20;5.53;;;11.30;99.90;;;;;;5033575;28;20257;-83
2023/12/11 01:57:26;;;;;;;21.03;5.20;;;11.30;99.90;;;;;;5032305;28;20229;-83
2023/12/11 01:59:51;;;;;;;29.27;6.63;;;11.40;99.90;;;;;;5033661;28;20170;-83
2023/12/11 02:02:19;;;;;;;21.40;5.03;;;11.40;99.90;;;;;;5032750;28;20181;-84
2023/12/11 02:04:46;;;;;;;22.20;6.37;;;11.40;99.90;;;;;;5033145;28;20168;-83
2023/12/11 02:07:12;;;;;;;21.27;5.27;;;11.30;99.90;;;;;;5033567;28;20244;-83
2023/12/11 02:09:37;;;;;;;22.53;5.47;;;11.30;99.90;;;;;;5032474;28;20221;-83
2023/12/11 02:12:03;;;;;;;23.13;5.17;;;11.40;99.90;;;;;;5033142;28;20227;-83
2023/12/11 02:14:29;;;;;;;20.30;4.90;;;11.40;99.90;;;;;;5032417;28;20196;-84
2023/12/11 02:16:55;;;;;;;21.73;5.07;;;11.40;99.90;;;;;;5034471;28;20580;-83
2023/12/11 02:19:21;;;;;;;25.10;5.37;;;11.30;99.90;;;;;;5032869;28;20583;-83
2023/12/11 02:21:46;;;;;;;22.20;5.10;;;11.20;99.90;;;;;;5032907;28;20637;-83
2023/12/11 02:24:25;;;;;;;19.63;5.83;;;11.30;99.90;;;;;;5032621;28;20181;-83
2023/12/11 02:26:51;;;;;;;20.20;5.30;;;11.20;99.90;;;;;;5033183;28;20224;-83
2023/12/11 02:29:16;;;;;;;26.30;5.33;;;11.20;99.90;;;;;;5032946;28;20179;-83
2023/12/11 02:31:42;;;;;;;21.40;4.73;;;11.20;99.90;;;;;;5033408;28;20266;-83
2023/12/11 02:34:08;;;;;;;20.67;5.20;;;11.20;99.90;;;;;;5033199;28;20255;-83
2023/12/11 02:36:34;;;;;;;24.90;5.17;;;11.20;99.90;;;;;;5032196;28;20179;-83
2023/12/11 02:39:00;;;;;;;19.60;5.10;;;11.20;99.90;;;;;;5032766;28;20172;-83
2023/12/11 02:41:26;;;;;;;24.70;6.00;;;11.30;99.90;;;;;;5032634;28;20185;-83
2023/12/11 02:43:51;;;;;;;20.57;5.27;;;11.30;99.90;;;;;;5033013;28;20167;-83
2023/12/11 02:46:17;;;;;;;23.23;5.10;;;11.30;99.90;;;;;;5032130;28;20614;-83
2023/12/11 02:48:43;;;;;;;17.77;4.10;;;11.30;99.90;;;;;;5033020;28;20663;-83
2023/12/11 02:51:08;;;;;;;23.57;5.37;;;11.30;99.90;;;;;;5033135;28;20170;-83
2023/12/11 02:53:34;;;;;;;20.20;5.20;;;11.20;99.90;;;;;;5032551;28;20264;-84
2023/12/11 02:56:00;;;;;;;28.23;5.57;;;11.20;99.90;;;;;;5031381;28;20534;-83
2023/12/11 02:58:26;;;;;;;21.13;5.07;;;11.30;99.90;;;;;;5032446;28;20171;-83
2023/12/11 03:00:51;;;;;;;24.37;5.00;;;11.40;99.90;;;;;;5032215;28;20630;-83
2023/12/11 03:03:17;;;;;;;20.90;4.73;;;11.30;99.90;;;;;;5032719;28;20177;-83
2023/12/11 03:05:43;;;;;;;20.97;5.43;;;11.40;99.90;;;;;;5031298;28;20538;-84
2023/12/11 03:08:08;;;;;;;16.93;4.53;;;11.30;99.90;;;;;;5031598;28;20213;-84
2023/12/11 03:10:34;;;;;;;22.97;5.90;;;11.30;99.90;;;;;;5031521;28;20188;-84
2023/12/11 03:13:00;;;;;;;19.47;4.90;;;11.30;99.90;;;;;;5032536;28;20542;-83
2023/12/11 03:15:26;;;;;;;20.63;5.23;;;11.30;99.90;;;;;;5032361;28;20322;-83
2023/12/11 03:17:51;;;;;;;23.27;5.97;;;11.30;99.90;;;;;;5032150;28;20232;-84
2023/12/11 03:20:17;;;;;;;22.10;5.33;;;11.30;99.90;;;;;;5031659;28;20249;-84
2023/12/11 03:22:44;;;;;;;21.17;5.10;;;11.30;99.90;;;;;;5032078;28;20546;-83
2023/12/11 03:25:09;;;;;;;20.07;5.23;;;11.40;99.90;;;;;;5031542;28;20186;-83
2023/12/11 03:27:35;;;;;;;22.40;4.83;;;11.20;99.90;;;;;;5031612;28;20209;-82
2023/12/11 03:30:01;;;;;;;22.20;4.90;;;11.20;99.90;;;;;;5031016;28;20675;-83
2023/12/11 03:32:27;;;;;;;17.93;4.63;;;11.20;99.90;;;;;;5033347;28;20525;-84
2023/12/11 03:34:53;;;;;;;13.80;3.83;;;11.30;99.90;;;;;;5032891;28;20185;-82
2023/12/11 03:37:18;;;;;;;22.50;5.03;;;11.30;99.90;;;;;;5031271;28;20177;-81
2023/12/11 03:39:44;;;;;;;14.70;4.07;;;11.40;99.90;;;;;;5031116;28;20258;-82
2023/12/11 03:42:10;;;;;;;19.00;5.00;;;11.30;99.90;;;;;;5030757;28;20256;-82
2023/12/11 03:44:36;;;;;;;21.00;5.90;;;11.30;99.90;;;;;;5031473;28;20185;-82
2023/12/11 03:47:02;;;;;;;23.63;5.43;;;11.40;99.90;;;;;;5030972;28;20218;-83
2023/12/11 03:49:28;;;;;;;19.60;5.07;;;11.40;99.90;;;;;;5032033;28;20182;-83
2023/12/11 03:51:53;;;;;;;23.53;5.43;;;11.40;99.90;;;;;;5031370;28;21017;-84
2023/12/11 03:54:19;;;;;;;21.40;5.23;;;11.40;99.90;;;;;;5031528;28;20228;-83
2023/12/11 03:56:45;;;;;;;23.40;4.50;;;11.40;99.90;;;;;;5031253;28;20224;-83
2023/12/11 03:59:11;;;;;;;19.13;4.60;;;11.30;99.90;;;;;;5031542;28;20718;-84
2023/12/11 04:01:37;;;;;;;17.53;4.87;;;11.40;99.90;;;;;;5031950;28;20205;-83
2023/12/11 04:04:03;;;;;;;22.07;4.10;;;11.40;99.90;;;;;;5031425;28;20627;-83
2023/12/11 04:06:29;;;;;;;21.80;4.07;;;11.30;99.90;;;;;;5030699;28;20182;-83
2023/12/11 04:08:54;;;;;;;22.63;5.40;;;11.20;99.90;;;;;;5029573;28;20217;-83
2023/12/11 04:11:20;;;;;;;18.47;5.53;;;11.20;99.90;;;;;;5031305;28;20293;-82
2023/12/11 04:13:46;;;;;;;20.43;4.67;;;11.30;99.90;;;;;;5030998;28;20547;-83
2023/12/11 04:16:12;;;;;;;22.60;5.13;;;11.30;99.90;;;;;;5031770;28;20214;-83
2023/12/11 04:18:38;;;;;;;17.07;4.77;;;11.20;99.90;;;;;;5035415;28;20174;-83
2023/12/11 04:21:05;;;;;;;22.20;5.80;;;11.20;99.90;;;;;;5035662;28;20179;-83
2023/12/11 04:23:30;;;;;;;18.93;5.10;;;11.20;99.90;;;;;;5035339;28;20171;-83
2023/12/11 04:25:59;;;;;;;19.73;4.47;;;11.20;99.90;;;;;;5035135;28;20556;-83
2023/12/11 04:28:28;;;;;;;18.37;4.63;;;11.20;99.90;;;;;;5033584;28;20682;-83
2023/12/11 04:30:54;;;;;;;20.10;4.60;;;11.20;99.90;;;;;;5035371;28;20205;-83
2023/12/11 04:33:21;;;;;;;19.27;4.57;;;11.10;99.90;;;;;;5036337;28;20648;-83
2023/12/11 04:35:46;;;;;;;19.97;4.63;;;11.10;99.90;;;;;;5034680;28;20177;-83
2023/12/11 04:38:13;;;;;;;21.80;4.20;;;11.00;99.90;;;;;;5034628;28;20265;-83
2023/12/11 04:40:39;;;;;;;21.00;5.17;;;11.00;99.90;;;;;;5034583;28;20201;-83
2023/12/11 04:43:05;;;;;;;21.37;4.67;;;11.10;99.90;;;;;;5035723;28;20182;-83
2023/12/11 04:45:31;;;;;;;21.80;5.07;;;11.10;99.90;;;;;;5035419;28;20185;-82
2023/12/11 04:47:56;;;;;;;21.23;5.23;;;11.00;99.90;;;;;;5035092;28;20205;-83
2023/12/11 04:50:22;;;;;;;19.50;4.60;;;11.00;99.90;;;;;;5033315;28;20201;-84
2023/12/11 04:52:48;;;;;;;22.27;4.50;;;11.10;99.90;;;;;;5032555;28;20178;-83
2023/12/11 04:55:14;;;;;;;20.93;5.13;;;11.10;99.90;;;;;;5034351;28;20178;-83
2023/12/11 04:57:40;;;;;;;17.60;5.47;;;11.20;99.90;;;;;;5034919;28;20195;-83
2023/12/11 05:00:07;;;;;;;22.43;5.40;;;11.00;99.90;;;;;;5035021;28;20247;-84
2023/12/11 05:02:33;;;;;;;18.93;4.73;;;11.20;99.90;;;;;;5034911;28;20210;-82
2023/12/11 05:04:58;;;;;;;21.10;5.40;;;11.20;99.90;;;;;;5033860;28;20665;-82
2023/12/11 05:07:24;;;;;;;18.63;4.27;;;11.20;99.90;;;;;;5034048;28;20217;-83
2023/12/11 05:09:50;;;;;;;19.97;4.20;;;11.20;99.90;;;;;;5034731;28;20185;-84
2023/12/11 05:12:16;;;;;;;20.13;4.37;;;11.30;99.90;;;;;;5034629;28;20213;-83
2023/12/11 05:14:41;;;;;;;25.30;5.07;;;11.30;99.90;;;;;;5034608;28;20181;-83
2023/12/11 05:17:07;;;;;;;18.60;5.13;;;11.30;99.90;;;;;;5034499;28;20176;-84
2023/12/11 05:19:35;;;;;;;18.70;4.73;;;11.40;99.90;;;;;;5035300;28;20331;-84
2023/12/11 05:22:01;;;;;;;16.93;4.67;;;11.40;99.90;;;;;;5034295;28;20178;-83
2023/12/11 05:24:27;;;;;;;18.73;5.03;;;11.40;99.90;;;;;;5034747;28;20181;-84
2023/12/11 05:26:54;;;;;;;22.03;5.43;;;11.40;99.90;;;;;;5034834;28;20690;-82
2023/12/11 05:29:20;;;;;;;18.43;4.80;;;11.50;99.90;;;;;;5034432;28;20177;-83
2023/12/11 05:31:46;;;;;;;23.70;4.50;;;11.60;97.50;;;;;;5034153;28;20181;-84
2023/12/11 05:34:11;;;;;;;25.03;5.50;;;11.50;97.10;;;;;;5034066;28;20176;-83
2023/12/11 05:36:37;;;;;;;21.73;5.10;;;11.50;96.80;;;;;;5033694;28;20167;-82
2023/12/11 05:39:03;;;;;;;16.10;4.83;;;11.50;95.30;;;;;;5033736;28;20177;-83
2023/12/11 05:41:28;;;;;;;23.57;5.57;;;11.60;93.90;;;;;;5033971;28;20685;-84
2023/12/11 05:43:57;;;;;;;23.83;5.03;;;11.50;93.70;;;;;;5033693;28;20176;-84
2023/12/11 05:46:23;;;;;;;14.83;4.13;;;11.60;91.20;;;;;;5033926;28;20239;-83
2023/12/11 05:48:49;;;;;;;22.17;5.57;;;11.70;87.70;;;;;;5033031;28;20188;-83
2023/12/11 05:51:15;;;;;;;19.53;5.27;;;11.70;89.50;;;;;;5033302;28;20640;-83
2023/12/11 05:53:41;;;;;;;18.40;5.23;;;11.70;86.30;;;;;;5032877;28;20219;-83
2023/12/11 05:56:07;;;;;;;23.73;5.87;;;11.80;84.70;;;;;;5034112;28;20185;-83
2023/12/11 05:58:33;;;;;;;21.27;5.40;;;11.70;85.90;;;;;;5033275;28;20186;-84
2023/12/11 06:00:58;;;;;;;26.33;6.00;;;11.80;83.60;;;;;;5033080;28;20540;-83
2023/12/11 06:03:24;;;;;;;20.80;4.90;;;11.80;83.60;;;;;;5033331;28;20179;-82
2023/12/11 06:05:57;;;;;;;22.27;5.50;;;11.70;84.50;;;;;;5033149;28;20662;-83
2023/12/11 06:08:26;;;;;;;22.27;5.43;;;11.70;83.80;;;;;;5032969;28;20700;-83
2023/12/11 06:10:51;;;;;;;23.70;5.17;;;11.80;82.10;;;;;;5032776;28;20665;-84
2023/12/11 06:13:17;;;;;;;23.00;5.53;;;11.80;79.60;;;;;;5032174;28;20174;-84
2023/12/11 06:15:44;;;;;;;22.13;5.07;;;11.80;79.60;;;;;;5032758;28;20202;-83
2023/12/11 06:18:09;;;;;;;17.77;4.90;;;11.80;79.80;;;;;;5032228;28;20201;-82
2023/12/11 06:20:35;;;;;;;23.87;5.20;;;11.80;78.00;;;;;;5031584;28;20646;-84
2023/12/11 06:23:01;;;;;;;21.60;5.03;;;11.80;75.90;;;;;;5032785;28;20174;-83
2023/12/11 06:25:27;;;;;;;15.30;4.10;;;11.80;73.50;;;;;;5032688;28;20188;-83
2023/12/11 06:27:53;;;;;;;17.30;5.13;;;11.80;69.70;;;;;;5031984;28;20213;-83
2023/12/11 06:30:19;;;;;;;20.57;4.70;;;11.80;68.90;;;;;;5033700;28;20586;-84
2023/12/11 06:32:44;;;;;;;16.60;4.63;;;11.80;69.80;;;;;;5033961;28;20211;-84
2023/12/11 06:35:10;;;;;;;18.43;4.53;;;11.90;67.50;;;;;;5032581;28;20219;-83
2023/12/11 06:37:36;;;;;;;17.53;4.63;;;11.90;64.70;;;;;;5028369;28;20603;-84
2023/12/11 06:40:03;;;;;;;18.60;4.70;;;11.90;62.60;;;;;;5022374;28;20178;-83
2023/12/11 06:42:32;;;;;;;21.30;5.93;;;12.00;60.60;;;;;;5013052;28;20326;-83
2023/12/11 06:44:59;;;;;;;14.00;4.03;;;11.90;57.00;;;;;;5011978;28;20167;-85
2023/12/11 06:47:25;;;;;;;18.33;4.57;;;11.90;50.40;;;;;;5012030;28;20258;-83
2023/12/11 06:49:50;;;;;;;14.07;3.97;;;11.90;51.40;;;;;;5012647;28;20170;-83
2023/12/11 06:52:16;;;;;;;13.33;3.60;;;11.90;47.80;;;;;;5013171;28;20182;-84
2023/12/11 06:54:42;;;;;;;16.27;4.10;;;12.00;44.30;;;;;;5011566;28;20182;-83
2023/12/11 06:57:08;;;;;;;15.83;3.80;;;12.00;41.50;;;;;;5012242;28;20699;-85
2023/12/11 06:59:34;;;;;;;17.30;4.93;;;11.90;40.70;;;;;;5014263;28;20251;-84
2023/12/11 07:01:59;;;;;;;18.13;4.27;;;11.90;42.60;;;;;;5030678;28;20173;-82
2023/12/11 07:04:26;;;;;;;18.77;5.57;;;12.00;41.60;;;;;;5029378;28;20178;-83
2023/12/11 07:06:52;;;;;;;13.73;3.83;;;12.00;41.10;;;;;;5031953;28;20751;-84
2023/12/11 07:09:17;;;;;;;14.10;3.90;;;11.90;39.60;;;;;;5030762;28;20246;-82
2023/12/11 07:11:43;;;;;;;17.27;4.43;;;12.00;38.40;;;;;;5031146;28;20258;-83
2023/12/11 07:14:09;;;;;;;14.50;3.50;;;11.90;35.70;;;;;;5031188;28;20252;-82
2023/12/11 07:16:35;;;;;;;11.47;3.00;;;12.00;32.90;;;;;;5031605;28;20205;-83
2023/12/11 07:19:03;;;;;;;17.17;3.60;;;11.90;31.20;;;;;;5030616;28;20613;-83
2023/12/11 07:21:29;;;;;;;11.60;3.03;;;11.90;31.80;;;;;;5030881;28;20178;-84
2023/12/11 07:23:55;;;;;;;14.37;4.17;;;12.00;29.80;;;;;;5031429;28;20244;-84
2023/12/11 07:26:20;;;;;;;13.37;3.80;;;12.00;28.80;;;;;;5030414;28;20677;-83
2023/12/11 07:28:46;;;;;;;11.77;3.27;;;12.00;28.30;;;;;;5030911;28;20560;-83
2023/12/11 07:31:12;;;;;;;12.03;3.27;;;12.00;28.30;;;;;;5030517;28;20178;-83
2023/12/11 07:33:37;;;;;;;11.43;3.43;;;12.00;26.80;;;;;;5030737;28;20178;-82
2023/12/11 07:36:04;;;;;;;14.47;3.80;;;12.00;28.80;;;;;;5030965;28;20177;-83
2023/12/11 07:38:30;;;;;;;12.53;3.37;;;11.90;29.00;;;;;;5031512;28;20177;-85
2023/12/11 07:40:57;;;;;;;12.53;4.07;;;12.00;31.00;;;;;;5031101;28;20192;-85
2023/12/11 07:43:23;;;;;;;15.40;4.50;;;12.00;30.80;;;;;;5031185;28;20256;-84
2023/12/11 07:45:48;;;;;;;13.13;3.93;;;12.00;34.30;;;;;;5030994;28;20679;-84
2023/12/11 07:48:14;;;;;;;13.13;4.33;;;11.90;35.70;;;;;;5030804;28;20287;-84
2023/12/11 07:50:40;;;;;;;12.73;3.53;;;12.00;38.70;;;;;;5031100;28;20244;-83
2023/12/11 07:53:05;;;;;;;14.77;3.87;;;11.90;41.20;;;;;;5030892;28;20274;-83
2023/12/11 07:55:31;;;;;;;16.10;4.70;;;11.90;42.80;;;;;;5030525;28;20188;-84
2023/12/11 07:57:58;;;;;;;14.47;4.07;;;11.90;45.90;;;;;;5030713;28;20178;-83
2023/12/11 08:00:23;;;;;;;14.77;4.67;;;11.90;24.20;;;;;;5030114;28;20181;-83
2023/12/11 08:02:50;;;;;;;19.47;4.63;;;11.90;23.60;;;;;;5030921;28;20299;-83
2023/12/11 08:05:15;;;;;;;17.20;4.43;;;11.90;27.40;;;;;;5031215;28;20622;-83
2023/12/11 08:07:41;;;;;;;17.20;4.37;;;11.90;26.70;;;;;;5030821;28;20359;-84
2023/12/11 08:10:07;;;;;;;18.17;4.17;;;11.90;27.50;;;;;;5031060;28;20273;-85
2023/12/11 08:12:33;;;;;;;19.93;5.43;;;11.80;25.10;;;;;;5031301;28;20220;-86
2023/12/11 08:14:59;;;;;;;18.60;5.03;;;11.90;21.70;;;;;;5030722;28;20251;-85
2023/12/11 08:17:25;;;;;;;12.70;4.10;;;11.90;18.90;;;;;;5031379;28;20186;-84
2023/12/11 08:19:51;;;;;;;17.67;6.87;;;11.90;17.70;;;;;;5031126;28;20254;-84
2023/12/11 08:22:17;;;;;;;15.23;4.53;;;11.90;16.70;;;;;;5030837;28;20233;-84
2023/12/11 08:24:43;;;;;;;15.23;3.50;;;12.00;17.10;;;;;;5031171;28;20179;-85
2023/12/11 08:27:09;;;;;;;16.63;4.07;;;12.00;14.50;;;;;;5030972;28;20201;-85
2023/12/11 08:29:36;;;;;;;15.60;3.90;;;11.90;9.90;;;;;;5031039;28;20179;-84
2023/12/11 08:32:02;;;;;;;17.57;4.60;;;12.00;13.60;;;;;;5032010;28;20177;-82
2023/12/11 08:34:29;;;;;;;16.33;4.73;;;12.00;9.80;;;;;;5031203;28;20660;-84
2023/12/11 08:36:55;;;;;;;12.10;4.10;;;12.00;10.60;;;;;;5031013;28;20271;-83
2023/12/11 08:39:21;;;;;;;13.23;4.17;;;12.00;11.70;;;;;;5030830;28;20207;-85
2023/12/11 08:41:48;;;;;;;17.03;4.07;;;12.00;11.50;;;;;;5031973;28;20184;-84
2023/12/11 08:44:15;;;;;;;11.50;3.57;;;12.00;10.80;;;;;;5031968;28;20168;-83
2023/12/11 08:46:41;;;;;;;18.53;5.30;;;12.00;8.20;;;;;;5030923;28;20251;-83
2023/12/11 08:49:08;;;;;;;15.90;4.60;;;12.00;8.30;;;;;;5030834;28;20178;-83
2023/12/11 08:51:34;;;;;;;18.47;7.90;;;12.00;8.80;;;;;;5031072;28;20178;-84
2023/12/11 08:53:59;;;;;;;13.80;4.33;;;12.00;8.30;;;;;;5030928;28;20211;-82
2023/12/11 08:56:25;;;;;;;14.17;4.17;;;12.00;5.80;;;;;;5030817;28;20188;-84
2023/12/11 08:58:52;;;;;;;13.57;3.97;;;12.00;9.30;;;;;;5030097;28;20638;-83
2023/12/11 09:01:18;;;;;;;17.60;4.40;;;11.90;9.40;;;;;;5030533;28;20187;-82
2023/12/11 09:03:44;;;;;;;13.07;3.60;;;12.00;10.40;;;;;;5033840;28;20709;-83
2023/12/11 09:06:13;;;;;;;15.87;5.20;;;12.00;12.10;;;;;;5034139;28;20170;-83
2023/12/11 09:08:38;;;;;;;16.63;4.63;;;12.00;11.10;;;;;;5034674;28;20744;-82
2023/12/11 09:11:04;;;;;;;17.10;5.53;;;12.00;9.70;;;;;;5037677;28;20169;-84
2023/12/11 09:13:30;;;;;;;16.97;5.27;;;12.00;11.40;;;;;;5035169;28;20178;-84
2023/12/11 09:15:56;;;;;;;17.77;5.87;;;12.00;9.50;;;;;;5036713;28;20365;-83
2023/12/11 09:18:22;;;;;;;18.43;5.57;;;12.00;12.20;;;;;;5035102;28;20172;-83
2023/12/11 09:20:48;;;;;;;14.93;4.53;;;12.00;12.50;;;;;;5034337;28;20708;-82
2023/12/11 09:23:14;;;;;;;16.70;5.83;;;12.00;11.50;;;;;;5034948;28;20170;-82
2023/12/11 09:25:41;;;;;;;16.20;4.47;;;12.00;12.00;;;;;;5034084;28;20553;-84
2023/12/11 09:28:07;;;;;;;17.43;5.60;;;12.00;13.00;;;;;;5033617;28;20201;-84
2023/12/11 09:30:33;;;;;;;12.47;3.80;;;12.00;12.30;;;;;;5033889;28;20181;-84
2023/12/11 09:32:59;;;;;;;12.20;3.33;;;12.10;9.40;;;;;;5034037;28;20180;-83
2023/12/11 09:35:24;;;;;;;10.70;3.50;;;12.10;6.50;;;;;;5033722;28;20205;-82
2023/12/11 09:37:50;;;;;;;13.87;3.97;;;12.20;6.70;;;;;;5033508;28;20172;-84
2023/12/11 09:40:16;;;;;;;14.43;4.00;;;12.20;6.20;;;;;;5033682;28;20175;-83
2023/12/11 09:42:43;;;;;;;11.77;3.47;;;12.10;7.40;;;;;;5033386;28;20169;-83
2023/12/11 09:45:12;;;;;;;15.43;3.90;;;12.10;12.30;;;;;;5033862;28;20195;-85
2023/12/11 09:47:55;;;;;;;17.00;3.97;;;12.10;11.80;;;;;;5033715;28;20205;-84
2023/12/11 09:50:21;;;;;;;11.43;3.33;;;12.10;15.60;;;;;;5033445;28;20173;-83
2023/12/11 09:52:46;;;;;;;17.07;4.00;;;12.10;15.60;;;;;;5034618;28;20249;-84
2023/12/11 09:55:12;;;;;;;17.23;4.53;;;12.10;16.90;;;;;;5033300;28;20189;-82
2023/12/11 09:57:40;;;;;;;20.43;4.37;;;12.10;18.10;;;;;;5033498;28;20174;-84
2023/12/11 10:00:08;;;;;;;14.83;4.27;;;12.10;18.50;;;;;;5033162;28;20624;-83
2023/12/11 10:02:35;;;;;;;13.33;3.60;;;12.00;22.90;;;;;;5033282;28;20167;-82
2023/12/11 10:05:07;;;;;;;13.10;4.13;;;12.00;22.60;;;;;;5033179;28;20178;-85
2023/12/11 10:07:37;;;;;;;13.53;3.60;;;12.10;25.60;;;;;;5032969;28;20631;-84
2023/12/11 10:10:25;;;;;;;17.83;5.03;;;12.10;26.80;;;;;;5036655;28;20186;-85
2023/12/11 10:12:53;;;;;;;13.40;3.77;;;12.10;25.30;;;;;;5034380;28;20635;-84
2023/12/11 10:15:34;;;;;;;15.67;3.87;;;12.00;26.00;;;;;;5032791;28;20228;-84
2023/12/11 10:18:08;;;;;;;19.50;4.10;;;12.00;29.30;;;;;;5033122;28;20169;-82
2023/12/11 10:20:36;;;;;;;19.43;4.77;;;12.00;30.10;;;;;;5032523;28;20233;-84
2023/12/11 10:23:16;;;;;;;15.77;4.10;;;12.00;32.40;;;;;;5033786;28;20175;-84
2023/12/11 10:25:44;;;;;;;15.90;3.60;;;12.00;30.90;;;;;;5032647;28;20236;-83
2023/12/11 10:28:12;;;;;;;16.30;3.93;;;12.00;33.80;;;;;;5034481;28;20237;-84
2023/12/11 10:30:55;;;;;;;14.90;4.03;;;12.00;33.40;;;;;;5034184;28;20250;-85
2023/12/11 10:33:23;;;;;;;13.00;3.73;;;12.00;34.40;;;;;;5033667;28;20249;-85
2023/12/11 10:35:49;;;;;;;20.33;4.30;;;12.00;36.30;;;;;;5032753;28;20701;-85
2023/12/11 10:38:21;;;;;;;16.60;5.00;;;12.00;34.80;;;;;;5032803;28;20174;-84
2023/12/11 10:40:49;;;;;;;19.33;4.37;;;12.00;33.90;;;;;;5032191;28;20181;-83
2023/12/11 10:43:16;;;;;;;12.40;4.30;;;12.10;33.00;;;;;;5032645;28;20175;-84
2023/12/11 10:45:42;;;;;;;15.10;4.10;;;12.00;30.90;;;;;;5032591;28;21000;-85
2023/12/11 10:48:08;;;;;;;14.87;3.50;;;12.00;33.90;;;;;;5032445;28;20324;-84
2023/12/11 10:50:36;;;;;;;15.67;4.50;;;12.10;26.70;;;;;;5032926;28;20205;-84
2023/12/11 10:53:02;;;;;;;14.93;3.63;;;12.10;28.30;;;;;;5034752;28;20185;-83
2023/12/11 10:55:33;;;;;;;18.23;3.50;;;12.10;23.80;;;;;;5032099;28;20196;-84
2023/12/11 10:58:01;;;;;;;10.63;3.90;;;12.10;21.20;;;;;;5033803;28;20252;-85
2023/12/11 11:00:32;;;;;;;10.93;3.57;;;12.20;21.20;;;;;;5032521;28;20251;-84
2023/12/11 11:03:00;;;;;;;12.67;2.93;;;12.20;18.40;;;;;;5031895;28;20513;-83
2023/12/11 11:05:31;;;;;;;12.97;4.03;;;12.20;18.10;;;;;;5033037;28;20167;-84
2023/12/11 11:08:34;;;;;;;11.67;3.37;;;12.30;15.20;;;;;;5032058;28;20214;-82
2023/12/11 11:11:25;;;;;;;18.13;3.60;;;12.30;13.10;;;;;;5031992;28;20177;-84
2023/12/11 11:14:08;;;;;;;13.10;3.20;;;12.40;6.80;;;;;;5031791;28;20638;-84
2023/12/11 11:16:53;;;;;;;12.83;3.27;;;12.40;3.50;;;;;;5031846;28;20169;-83
2023/12/11 11:19:19;;;;;;;9.43;2.80;;;12.30;3.30;;;;;;5032491;28;20267;-84
2023/12/11 11:22:00;;;;;;;9.83;3.00;;;12.30;4.60;;;;;;5032053;28;20317;-83
2023/12/11 11:24:29;;;;;;;13.30;2.90;;;12.30;5.80;;;;;;5032727;28;20720;-84
2023/12/11 11:26:54;;;;;;;8.00;3.47;;;12.30;4.00;;;;;;5031694;28;20196;-84
2023/12/11 11:29:40;;;;;;;11.27;2.57;;;12.30;2.80;;;;;;5031664;28;20175;-85
2023/12/11 11:32:06;;;;;;;10.37;2.90;;;12.30;1.00;;;;;;5032522;28;20165;-83
2023/12/11 11:34:41;;;;;;;12.17;2.50;;;12.30;1.00;;;;;;5025757;28;20185;-86
2023/12/11 11:37:07;;;;;;;11.80;2.40;;;12.50;1.00;;;;;;5024354;28;20180;-86
2023/12/11 11:39:57;;;;;;;11.03;2.73;;;12.30;1.00;;;;;;5024147;28;20167;-83
2023/12/11 11:42:23;;;;;;;10.30;2.70;;;12.40;1.00;;;;;;5014635;28;20177;-84
2023/12/11 11:44:58;;;;;;;11.40;3.13;;;12.30;1.40;;;;;;5022816;28;20605;-84
2023/12/11 11:47:24;;;;;;;9.60;3.23;;;12.30;3.80;;;;;;5023070;28;20615;-84
2023/12/11 11:49:50;;;;;;;10.37;3.13;;;12.30;5.20;;;;;;5031466;28;20228;-83
2023/12/11 11:52:23;;;;;;;7.70;2.93;;;12.30;5.70;;;;;;5028985;28;20174;-84
2023/12/11 11:54:50;;;;;;;15.13;3.83;;;12.30;8.40;;;;;;5047318;28;20204;-84
2023/12/11 11:57:16;;;;;;;13.17;3.60;;;12.30;9.60;;;;;;5010981;28;20175;-85
2023/12/11 11:59:43;;;;;;;8.40;3.33;;;12.40;9.50;;;;;;5025499;28;20509;-84
2023/12/11 12:02:09;;;;;;;10.03;3.17;;;12.40;8.00;;;;;;5033573;28;20185;-85
2023/12/11 12:04:35;;;;;;;11.33;3.10;;;12.40;9.80;;;;;;5033194;28;20493;-87
2023/12/11 12:07:05;;;;;;;15.47;3.50;;;12.40;8.40;;;;;;5025698;28;20213;-86
2023/12/11 12:09:33;;;;;;;11.77;3.43;;;12.40;8.40;;;;;;5024493;28;20209;-84
2023/12/11 12:12:00;;;;;;;13.40;3.70;;;12.40;8.00;;;;;;5020779;28;20174;-86
2023/12/11 12:14:26;;;;;;;14.53;3.20;;;12.50;10.40;;;;;;5025461;28;20177;-85
2023/12/11 12:16:52;;;;;;;12.20;3.10;;;12.50;10.20;;;;;;5022292;28;20186;-87
2023/12/11 12:19:32;;;;;;;12.87;3.20;;;12.50;8.70;;;;;;5025086;28;20247;-84
2023/12/11 12:21:58;;;;;;;10.77;3.10;;;12.50;7.80;;;;;;5030757;28;20170;-86
2023/12/11 12:24:25;;;;;;;12.17;3.20;;;12.40;10.80;;;;;;5031087;28;20210;-83
2023/12/11 12:27:03;;;;;;;12.30;3.13;;;12.40;13.20;;;;;;5024007;28;20629;-84
2023/12/11 12:29:31;;;;;;;13.13;3.43;;;12.40;12.00;;;;;;5021705;28;20523;-84
2023/12/11 12:31:59;;;;;;;7.27;2.53;;;12.40;13.20;;;;;;5019948;28;20212;-84
2023/12/11 12:34:27;;;;;;;12.20;4.07;;;12.40;12.70;;;;;;5021347;28;20167;-83
2023/12/11 12:36:59;;;;;;;14.43;3.67;;;12.40;14.90;;;;;;5020996;28;20579;-84